sensor_id;sensor_type;location;lat;lon;timestamp;P1;durP1;ratioP1;P2;durP2;ratioP2
12334;SDS011;6233;51.560;9.986;2022-12-08T00:02:22;14.87;;;9.47;;
12334;SDS011;6233;51.560;9.986;2022-12-08T00:05:24;10.47;;;7.37;;
12334;SDS011;6233;51.560;9.986;2022-12-08T00:08:45;12.70;;;8.40;;
12334;SDS011;6233;51.560;9.986;2022-12-08T00:12:08;12.43;;;8.97;;
12334;SDS011;6233;51.560;9.986;2022-12-08T00:15:15;11.57;;;8.33;;
12334;SDS011;6233;51.560;9.986;2022-12-08T00:18:17;14.43;;;8.77;;
12334;SDS011;6233;51.560;9.986;2022-12-08T00:21:18;12.33;;;8.43;;
12334;SDS011;6233;51.560;9.986;2022-12-08T00:24:20;14.27;;;9.07;;
12334;SDS011;6233;51.560;9.986;2022-12-08T00:27:25;13.97;;;8.60;;
12334;SDS011;6233;51.560;9.986;2022-12-08T00:30:26;15.63;;;8.93;;
12334;SDS011;6233;51.560;9.986;2022-12-08T00:33:28;12.77;;;9.00;;
12334;SDS011;6233;51.560;9.986;2022-12-08T00:36:30;13.13;;;9.10;;
12334;SDS011;6233;51.560;9.986;2022-12-08T00:39:32;12.33;;;8.90;;
12334;SDS011;6233;51.560;9.986;2022-12-08T00:42:36;12.23;;;7.97;;
12334;SDS011;6233;51.560;9.986;2022-12-08T00:45:38;13.67;;;9.03;;
12334;SDS011;6233;51.560;9.986;2022-12-08T00:48:39;14.03;;;9.33;;
12334;SDS011;6233;51.560;9.986;2022-12-08T00:51:41;12.10;;;8.60;;
12334;SDS011;6233;51.560;9.986;2022-12-08T00:54:44;13.93;;;9.40;;
12334;SDS011;6233;51.560;9.986;2022-12-08T00:57:45;16.60;;;9.33;;
12334;SDS011;6233;51.560;9.986;2022-12-08T01:00:47;14.67;;;8.90;;
12334;SDS011;6233;51.560;9.986;2022-12-08T01:03:49;14.20;;;9.17;;
12334;SDS011;6233;51.560;9.986;2022-12-08T01:06:51;14.90;;;9.73;;
12334;SDS011;6233;51.560;9.986;2022-12-08T01:09:52;12.33;;;9.13;;
12334;SDS011;6233;51.560;9.986;2022-12-08T01:12:54;13.67;;;8.77;;
12334;SDS011;6233;51.560;9.986;2022-12-08T01:15:56;12.27;;;8.90;;
12334;SDS011;6233;51.560;9.986;2022-12-08T01:18:58;17.20;;;10.07;;
12334;SDS011;6233;51.560;9.986;2022-12-08T01:22:00;15.70;;;10.00;;
12334;SDS011;6233;51.560;9.986;2022-12-08T01:25:01;15.33;;;10.00;;
12334;SDS011;6233;51.560;9.986;2022-12-08T01:28:03;15.67;;;10.97;;
12334;SDS011;6233;51.560;9.986;2022-12-08T01:31:09;14.73;;;10.67;;
12334;SDS011;6233;51.560;9.986;2022-12-08T01:34:24;15.50;;;9.97;;
12334;SDS011;6233;51.560;9.986;2022-12-08T01:37:25;15.23;;;10.30;;
12334;SDS011;6233;51.560;9.986;2022-12-08T01:40:27;16.63;;;10.83;;
12334;SDS011;6233;51.560;9.986;2022-12-08T01:43:49;16.93;;;11.40;;
12334;SDS011;6233;51.560;9.986;2022-12-08T01:47:10;15.47;;;10.70;;
12334;SDS011;6233;51.560;9.986;2022-12-08T01:50:12;16.40;;;10.50;;
12334;SDS011;6233;51.560;9.986;2022-12-08T01:53:20;20.07;;;11.10;;
12334;SDS011;6233;51.560;9.986;2022-12-08T01:56:35;15.90;;;10.97;;
12334;SDS011;6233;51.560;9.986;2022-12-08T01:59:43;20.20;;;11.07;;
12334;SDS011;6233;51.560;9.986;2022-12-08T02:03:10;17.53;;;11.27;;
12334;SDS011;6233;51.560;9.986;2022-12-08T02:06:15;14.37;;;11.20;;
12334;SDS011;6233;51.560;9.986;2022-12-08T02:09:23;18.50;;;11.07;;
12334;SDS011;6233;51.560;9.986;2022-12-08T02:12:25;16.53;;;10.87;;
12334;SDS011;6233;51.560;9.986;2022-12-08T02:15:32;16.63;;;11.37;;
12334;SDS011;6233;51.560;9.986;2022-12-08T02:33:00;17.63;;;11.30;;
12334;SDS011;6233;51.560;9.986;2022-12-08T02:40:41;17.13;;;11.43;;
12334;SDS011;6233;51.560;9.986;2022-12-08T02:43:40;17.27;;;11.73;;
12334;SDS011;6233;51.560;9.986;2022-12-08T02:50:25;20.00;;;10.63;;
12334;SDS011;6233;51.560;9.986;2022-12-08T02:53:31;17.50;;;11.27;;
12334;SDS011;6233;51.560;9.986;2022-12-08T02:56:48;17.33;;;11.90;;
12334;SDS011;6233;51.560;9.986;2022-12-08T03:00:26;18.47;;;11.60;;
12334;SDS011;6233;51.560;9.986;2022-12-08T03:03:44;14.53;;;10.70;;
12334;SDS011;6233;51.560;9.986;2022-12-08T03:06:49;18.57;;;11.10;;
12334;SDS011;6233;51.560;9.986;2022-12-08T03:13:46;16.07;;;11.57;;
12334;SDS011;6233;51.560;9.986;2022-12-08T03:16:52;19.90;;;11.77;;
12334;SDS011;6233;51.560;9.986;2022-12-08T03:19:57;16.23;;;11.57;;
12334;SDS011;6233;51.560;9.986;2022-12-08T03:23:06;19.77;;;12.53;;
12334;SDS011;6233;51.560;9.986;2022-12-08T03:26:11;16.40;;;10.60;;
12334;SDS011;6233;51.560;9.986;2022-12-08T03:29:19;16.37;;;10.53;;
12334;SDS011;6233;51.560;9.986;2022-12-08T03:32:29;18.57;;;11.83;;
12334;SDS011;6233;51.560;9.986;2022-12-08T03:35:35;14.00;;;10.60;;
12334;SDS011;6233;51.560;9.986;2022-12-08T03:38:41;17.03;;;10.63;;
12334;SDS011;6233;51.560;9.986;2022-12-08T03:41:44;16.33;;;10.67;;
12334;SDS011;6233;51.560;9.986;2022-12-08T03:44:47;15.57;;;10.40;;
12334;SDS011;6233;51.560;9.986;2022-12-08T03:47:50;12.27;;;9.40;;
12334;SDS011;6233;51.560;9.986;2022-12-08T03:50:52;15.53;;;10.47;;
12334;SDS011;6233;51.560;9.986;2022-12-08T03:53:54;15.07;;;10.03;;
12334;SDS011;6233;51.560;9.986;2022-12-08T03:56:56;15.17;;;10.07;;
12334;SDS011;6233;51.560;9.986;2022-12-08T03:59:57;15.87;;;9.83;;
12334;SDS011;6233;51.560;9.986;2022-12-08T04:02:59;14.90;;;9.10;;
12334;SDS011;6233;51.560;9.986;2022-12-08T04:06:01;12.97;;;9.27;;
12334;SDS011;6233;51.560;9.986;2022-12-08T04:09:02;12.97;;;9.20;;
12334;SDS011;6233;51.560;9.986;2022-12-08T04:12:07;12.53;;;9.03;;
12334;SDS011;6233;51.560;9.986;2022-12-08T04:15:12;15.90;;;10.00;;
12334;SDS011;6233;51.560;9.986;2022-12-08T04:18:14;14.73;;;9.90;;
12334;SDS011;6233;51.560;9.986;2022-12-08T04:21:16;15.00;;;11.17;;
12334;SDS011;6233;51.560;9.986;2022-12-08T04:24:18;13.60;;;9.60;;
12334;SDS011;6233;51.560;9.986;2022-12-08T04:27:24;15.80;;;10.30;;
12334;SDS011;6233;51.560;9.986;2022-12-08T04:30:28;17.77;;;10.97;;
12334;SDS011;6233;51.560;9.986;2022-12-08T04:33:30;16.10;;;10.73;;
12334;SDS011;6233;51.560;9.986;2022-12-08T04:36:32;15.87;;;9.93;;
12334;SDS011;6233;51.560;9.986;2022-12-08T04:39:33;17.80;;;11.37;;
12334;SDS011;6233;51.560;9.986;2022-12-08T04:42:35;14.53;;;10.47;;
12334;SDS011;6233;51.560;9.986;2022-12-08T04:45:38;15.60;;;9.90;;
12334;SDS011;6233;51.560;9.986;2022-12-08T04:48:40;15.17;;;10.37;;
12334;SDS011;6233;51.560;9.986;2022-12-08T04:51:42;15.07;;;10.37;;
12334;SDS011;6233;51.560;9.986;2022-12-08T04:54:44;15.27;;;10.07;;
12334;SDS011;6233;51.560;9.986;2022-12-08T04:57:46;16.50;;;11.30;;
12334;SDS011;6233;51.560;9.986;2022-12-08T05:00:48;17.27;;;11.57;;
12334;SDS011;6233;51.560;9.986;2022-12-08T05:03:52;15.57;;;11.23;;
12334;SDS011;6233;51.560;9.986;2022-12-08T05:06:54;15.03;;;10.03;;
12334;SDS011;6233;51.560;9.986;2022-12-08T05:09:56;17.97;;;11.43;;
12334;SDS011;6233;51.560;9.986;2022-12-08T05:12:58;17.90;;;11.67;;
12334;SDS011;6233;51.560;9.986;2022-12-08T05:16:01;15.20;;;10.77;;
12334;SDS011;6233;51.560;9.986;2022-12-08T05:19:13;18.20;;;11.23;;
12334;SDS011;6233;51.560;9.986;2022-12-08T05:22:15;17.03;;;11.00;;
12334;SDS011;6233;51.560;9.986;2022-12-08T05:25:17;18.03;;;9.90;;
12334;SDS011;6233;51.560;9.986;2022-12-08T05:28:22;16.43;;;9.97;;
12334;SDS011;6233;51.560;9.986;2022-12-08T05:31:44;16.40;;;10.23;;
12334;SDS011;6233;51.560;9.986;2022-12-08T05:34:46;15.30;;;10.30;;
12334;SDS011;6233;51.560;9.986;2022-12-08T05:37:47;14.60;;;9.03;;
12334;SDS011;6233;51.560;9.986;2022-12-08T05:40:49;14.10;;;9.17;;
12334;SDS011;6233;51.560;9.986;2022-12-08T05:43:51;12.57;;;9.33;;
12334;SDS011;6233;51.560;9.986;2022-12-08T05:46:53;13.47;;;9.53;;
12334;SDS011;6233;51.560;9.986;2022-12-08T05:49:54;15.07;;;9.30;;
12334;SDS011;6233;51.560;9.986;2022-12-08T05:52:56;13.67;;;9.27;;
12334;SDS011;6233;51.560;9.986;2022-12-08T05:55:58;15.67;;;9.47;;
12334;SDS011;6233;51.560;9.986;2022-12-08T05:58:59;14.27;;;10.03;;
12334;SDS011;6233;51.560;9.986;2022-12-08T06:02:01;14.80;;;8.70;;
12334;SDS011;6233;51.560;9.986;2022-12-08T06:05:03;15.00;;;9.97;;
12334;SDS011;6233;51.560;9.986;2022-12-08T06:08:09;13.93;;;10.40;;
12334;SDS011;6233;51.560;9.986;2022-12-08T06:11:22;15.13;;;10.10;;
12334;SDS011;6233;51.560;9.986;2022-12-08T06:14:25;13.70;;;10.03;;
12334;SDS011;6233;51.560;9.986;2022-12-08T06:17:27;14.00;;;9.30;;
12334;SDS011;6233;51.560;9.986;2022-12-08T06:24:21;14.60;;;10.00;;
12334;SDS011;6233;51.560;9.986;2022-12-08T06:27:23;15.43;;;9.70;;
12334;SDS011;6233;51.560;9.986;2022-12-08T06:30:25;15.47;;;10.13;;
12334;SDS011;6233;51.560;9.986;2022-12-08T06:33:28;14.70;;;10.07;;
12334;SDS011;6233;51.560;9.986;2022-12-08T06:36:31;23.17;;;12.97;;
12334;SDS011;6233;51.560;9.986;2022-12-08T06:39:34;14.87;;;10.47;;
12334;SDS011;6233;51.560;9.986;2022-12-08T06:42:36;16.13;;;10.30;;
12334;SDS011;6233;51.560;9.986;2022-12-08T06:45:47;14.20;;;10.37;;
12334;SDS011;6233;51.560;9.986;2022-12-08T06:48:49;16.97;;;10.30;;
12334;SDS011;6233;51.560;9.986;2022-12-08T06:51:50;17.83;;;10.63;;
12334;SDS011;6233;51.560;9.986;2022-12-08T06:54:52;14.70;;;9.67;;
12334;SDS011;6233;51.560;9.986;2022-12-08T06:57:54;14.70;;;9.97;;
12334;SDS011;6233;51.560;9.986;2022-12-08T07:01:02;17.13;;;11.77;;
12334;SDS011;6233;51.560;9.986;2022-12-08T07:04:05;15.20;;;10.37;;
12334;SDS011;6233;51.560;9.986;2022-12-08T07:07:06;14.10;;;10.40;;
12334;SDS011;6233;51.560;9.986;2022-12-08T07:10:09;15.23;;;9.97;;
12334;SDS011;6233;51.560;9.986;2022-12-08T07:13:11;13.73;;;10.20;;
12334;SDS011;6233;51.560;9.986;2022-12-08T07:16:13;14.63;;;9.87;;
12334;SDS011;6233;51.560;9.986;2022-12-08T07:19:15;15.53;;;10.03;;
12334;SDS011;6233;51.560;9.986;2022-12-08T07:22:17;16.53;;;10.67;;
12334;SDS011;6233;51.560;9.986;2022-12-08T07:25:18;12.90;;;8.87;;
12334;SDS011;6233;51.560;9.986;2022-12-08T07:31:52;14.33;;;9.20;;
12334;SDS011;6233;51.560;9.986;2022-12-08T07:34:54;13.70;;;9.57;;
12334;SDS011;6233;51.560;9.986;2022-12-08T07:37:56;11.73;;;8.67;;
12334;SDS011;6233;51.560;9.986;2022-12-08T07:40:58;13.13;;;9.00;;
12334;SDS011;6233;51.560;9.986;2022-12-08T07:44:07;13.27;;;9.03;;
12334;SDS011;6233;51.560;9.986;2022-12-08T07:47:09;12.60;;;9.03;;
12334;SDS011;6233;51.560;9.986;2022-12-08T07:50:11;11.90;;;8.77;;
12334;SDS011;6233;51.560;9.986;2022-12-08T07:53:12;11.67;;;8.73;;
12334;SDS011;6233;51.560;9.986;2022-12-08T07:56:14;14.07;;;9.47;;
12334;SDS011;6233;51.560;9.986;2022-12-08T07:59:16;12.33;;;9.27;;
12334;SDS011;6233;51.560;9.986;2022-12-08T08:02:18;15.13;;;10.07;;
12334;SDS011;6233;51.560;9.986;2022-12-08T08:05:25;13.77;;;9.40;;
12334;SDS011;6233;51.560;9.986;2022-12-08T08:08:27;13.90;;;9.27;;
12334;SDS011;6233;51.560;9.986;2022-12-08T08:11:29;10.73;;;8.43;;
12334;SDS011;6233;51.560;9.986;2022-12-08T08:14:31;12.67;;;9.17;;
12334;SDS011;6233;51.560;9.986;2022-12-08T08:17:33;12.83;;;9.57;;
12334;SDS011;6233;51.560;9.986;2022-12-08T08:20:35;12.80;;;9.00;;
12334;SDS011;6233;51.560;9.986;2022-12-08T08:23:37;11.50;;;8.77;;
12334;SDS011;6233;51.560;9.986;2022-12-08T08:26:39;12.30;;;8.27;;
12334;SDS011;6233;51.560;9.986;2022-12-08T08:29:40;13.77;;;9.33;;
12334;SDS011;6233;51.560;9.986;2022-12-08T08:32:42;13.33;;;8.53;;
12334;SDS011;6233;51.560;9.986;2022-12-08T08:35:44;13.83;;;9.17;;
12334;SDS011;6233;51.560;9.986;2022-12-08T08:38:45;8.77;;;6.97;;
12334;SDS011;6233;51.560;9.986;2022-12-08T08:41:50;11.73;;;8.17;;
12334;SDS011;6233;51.560;9.986;2022-12-08T08:44:52;10.90;;;7.93;;
12334;SDS011;6233;51.560;9.986;2022-12-08T08:47:54;9.87;;;7.60;;
12334;SDS011;6233;51.560;9.986;2022-12-08T08:50:56;10.23;;;7.63;;
12334;SDS011;6233;51.560;9.986;2022-12-08T08:53:59;9.37;;;7.53;;
12334;SDS011;6233;51.560;9.986;2022-12-08T08:57:00;9.23;;;7.30;;
12334;SDS011;6233;51.560;9.986;2022-12-08T09:00:03;10.70;;;7.20;;
12334;SDS011;6233;51.560;9.986;2022-12-08T09:03:07;8.83;;;7.23;;
12334;SDS011;6233;51.560;9.986;2022-12-08T09:06:09;9.63;;;7.40;;
12334;SDS011;6233;51.560;9.986;2022-12-08T09:09:11;9.07;;;7.27;;
12334;SDS011;6233;51.560;9.986;2022-12-08T09:12:15;10.57;;;8.10;;
12334;SDS011;6233;51.560;9.986;2022-12-08T09:15:17;10.83;;;8.10;;
12334;SDS011;6233;51.560;9.986;2022-12-08T09:18:20;12.83;;;7.77;;
12334;SDS011;6233;51.560;9.986;2022-12-08T09:21:23;10.63;;;7.63;;
12334;SDS011;6233;51.560;9.986;2022-12-08T09:24:26;9.77;;;7.20;;
12334;SDS011;6233;51.560;9.986;2022-12-08T09:27:30;12.53;;;8.70;;
12334;SDS011;6233;51.560;9.986;2022-12-08T09:30:32;10.97;;;7.93;;
12334;SDS011;6233;51.560;9.986;2022-12-08T09:33:34;9.80;;;7.50;;
12334;SDS011;6233;51.560;9.986;2022-12-08T09:36:35;11.53;;;8.23;;
12334;SDS011;6233;51.560;9.986;2022-12-08T09:39:37;12.70;;;8.63;;
12334;SDS011;6233;51.560;9.986;2022-12-08T09:46:03;10.20;;;7.63;;
12334;SDS011;6233;51.560;9.986;2022-12-08T09:49:11;9.97;;;7.57;;
12334;SDS011;6233;51.560;9.986;2022-12-08T09:52:20;10.93;;;8.20;;
12334;SDS011;6233;51.560;9.986;2022-12-08T09:55:34;9.00;;;6.90;;
12334;SDS011;6233;51.560;9.986;2022-12-08T09:58:50;10.03;;;6.83;;
12334;SDS011;6233;51.560;9.986;2022-12-08T10:01:55;12.70;;;8.30;;
12334;SDS011;6233;51.560;9.986;2022-12-08T10:04:57;10.57;;;7.90;;
12334;SDS011;6233;51.560;9.986;2022-12-08T10:08:06;9.07;;;7.00;;
12334;SDS011;6233;51.560;9.986;2022-12-08T10:11:39;10.03;;;7.20;;
12334;SDS011;6233;51.560;9.986;2022-12-08T10:18:11;9.67;;;7.30;;
12334;SDS011;6233;51.560;9.986;2022-12-08T10:21:17;10.67;;;7.33;;
12334;SDS011;6233;51.560;9.986;2022-12-08T10:24:30;10.23;;;6.47;;
12334;SDS011;6233;51.560;9.986;2022-12-08T10:27:39;9.93;;;7.03;;
12334;SDS011;6233;51.560;9.986;2022-12-08T10:30:41;8.43;;;6.63;;
12334;SDS011;6233;51.560;9.986;2022-12-08T10:33:43;9.67;;;7.20;;
12334;SDS011;6233;51.560;9.986;2022-12-08T10:40:05;8.67;;;6.30;;
12334;SDS011;6233;51.560;9.986;2022-12-08T10:43:23;9.60;;;6.90;;
12334;SDS011;6233;51.560;9.986;2022-12-08T10:46:26;7.97;;;6.20;;
12334;SDS011;6233;51.560;9.986;2022-12-08T10:49:29;9.33;;;6.50;;
12334;SDS011;6233;51.560;9.986;2022-12-08T10:52:36;7.67;;;6.00;;
12334;SDS011;6233;51.560;9.986;2022-12-08T10:55:41;7.93;;;6.50;;
12334;SDS011;6233;51.560;9.986;2022-12-08T10:58:44;9.07;;;6.97;;
12334;SDS011;6233;51.560;9.986;2022-12-08T11:01:50;10.60;;;7.40;;
12334;SDS011;6233;51.560;9.986;2022-12-08T11:04:57;9.23;;;7.20;;
12334;SDS011;6233;51.560;9.986;2022-12-08T11:08:00;8.77;;;6.43;;
12334;SDS011;6233;51.560;9.986;2022-12-08T11:11:06;8.40;;;6.60;;
12334;SDS011;6233;51.560;9.986;2022-12-08T11:14:11;10.83;;;7.77;;
12334;SDS011;6233;51.560;9.986;2022-12-08T11:17:39;10.93;;;7.70;;
12334;SDS011;6233;51.560;9.986;2022-12-08T11:20:41;9.07;;;6.40;;
12334;SDS011;6233;51.560;9.986;2022-12-08T11:23:45;9.80;;;7.07;;
12334;SDS011;6233;51.560;9.986;2022-12-08T11:26:53;9.37;;;7.27;;
12334;SDS011;6233;51.560;9.986;2022-12-08T11:30:05;11.07;;;7.70;;
12334;SDS011;6233;51.560;9.986;2022-12-08T11:36:22;10.23;;;7.83;;
12334;SDS011;6233;51.560;9.986;2022-12-08T11:53:47;11.53;;;8.67;;
12334;SDS011;6233;51.560;9.986;2022-12-08T11:57:03;10.13;;;7.67;;
12334;SDS011;6233;51.560;9.986;2022-12-08T12:00:10;11.17;;;8.03;;
12334;SDS011;6233;51.560;9.986;2022-12-08T12:03:23;12.83;;;9.17;;
12334;SDS011;6233;51.560;9.986;2022-12-08T12:17:21;6.60;;;4.00;;
12334;SDS011;6233;51.560;9.986;2022-12-08T12:23:34;4.23;;;3.50;;
12334;SDS011;6233;51.560;9.986;2022-12-08T12:27:01;3.90;;;3.40;;
12334;SDS011;6233;51.560;9.986;2022-12-08T12:30:48;4.87;;;3.50;;
12334;SDS011;6233;51.560;9.986;2022-12-08T12:34:14;4.30;;;3.57;;
12334;SDS011;6233;51.560;9.986;2022-12-08T12:37:38;3.57;;;3.17;;
12334;SDS011;6233;51.560;9.986;2022-12-08T12:40:44;5.20;;;3.53;;
12334;SDS011;6233;51.560;9.986;2022-12-08T12:47:42;5.50;;;3.90;;
12334;SDS011;6233;51.560;9.986;2022-12-08T12:50:49;4.13;;;3.40;;
12334;SDS011;6233;51.560;9.986;2022-12-08T12:53:55;4.80;;;3.13;;
12334;SDS011;6233;51.560;9.986;2022-12-08T12:57:23;4.93;;;3.63;;
12334;SDS011;6233;51.560;9.986;2022-12-08T13:00:35;4.20;;;3.13;;
12334;SDS011;6233;51.560;9.986;2022-12-08T13:03:37;4.07;;;3.00;;
12334;SDS011;6233;51.560;9.986;2022-12-08T13:06:46;5.43;;;3.40;;
12334;SDS011;6233;51.560;9.986;2022-12-08T13:09:54;4.10;;;3.50;;
12334;SDS011;6233;51.560;9.986;2022-12-08T13:16:15;16.10;;;10.10;;
12334;SDS011;6233;51.560;9.986;2022-12-08T13:19:21;7.10;;;5.53;;
12334;SDS011;6233;51.560;9.986;2022-12-08T13:26:08;3.87;;;3.20;;
12334;SDS011;6233;51.560;9.986;2022-12-08T13:29:13;3.63;;;3.20;;
12334;SDS011;6233;51.560;9.986;2022-12-08T13:35:50;5.53;;;4.50;;
12334;SDS011;6233;51.560;9.986;2022-12-08T13:39:00;4.43;;;2.97;;
12334;SDS011;6233;51.560;9.986;2022-12-08T13:42:05;3.93;;;3.30;;
12334;SDS011;6233;51.560;9.986;2022-12-08T13:45:26;2.97;;;2.63;;
12334;SDS011;6233;51.560;9.986;2022-12-08T13:48:52;3.50;;;2.80;;
12334;SDS011;6233;51.560;9.986;2022-12-08T13:52:31;5.03;;;3.90;;
12334;SDS011;6233;51.560;9.986;2022-12-08T13:55:58;3.00;;;2.70;;
12334;SDS011;6233;51.560;9.986;2022-12-08T14:02:31;3.33;;;3.00;;
12334;SDS011;6233;51.560;9.986;2022-12-08T14:05:40;3.27;;;2.97;;
12334;SDS011;6233;51.560;9.986;2022-12-08T14:09:05;3.20;;;2.90;;
12334;SDS011;6233;51.560;9.986;2022-12-08T14:12:22;4.53;;;3.30;;
12334;SDS011;6233;51.560;9.986;2022-12-08T14:15:28;4.07;;;3.00;;
12334;SDS011;6233;51.560;9.986;2022-12-08T14:18:38;3.27;;;2.90;;
12334;SDS011;6233;51.560;9.986;2022-12-08T14:21:40;3.10;;;2.80;;
12334;SDS011;6233;51.560;9.986;2022-12-08T14:24:45;3.13;;;2.83;;
12334;SDS011;6233;51.560;9.986;2022-12-08T14:27:48;3.00;;;2.70;;
12334;SDS011;6233;51.560;9.986;2022-12-08T14:30:58;3.77;;;3.17;;
12334;SDS011;6233;51.560;9.986;2022-12-08T14:34:00;3.63;;;3.33;;
12334;SDS011;6233;51.560;9.986;2022-12-08T14:37:02;4.20;;;3.80;;
12334;SDS011;6233;51.560;9.986;2022-12-08T14:40:05;4.17;;;3.60;;
12334;SDS011;6233;51.560;9.986;2022-12-08T14:43:24;4.03;;;3.63;;
12334;SDS011;6233;51.560;9.986;2022-12-08T14:46:27;4.27;;;3.83;;
12334;SDS011;6233;51.560;9.986;2022-12-08T14:49:33;4.30;;;3.83;;
12334;SDS011;6233;51.560;9.986;2022-12-08T14:52:40;5.13;;;4.63;;
12334;SDS011;6233;51.560;9.986;2022-12-08T14:55:45;5.53;;;4.80;;
12334;SDS011;6233;51.560;9.986;2022-12-08T14:58:49;4.83;;;4.33;;
12334;SDS011;6233;51.560;9.986;2022-12-08T15:05:12;4.93;;;4.30;;
12334;SDS011;6233;51.560;9.986;2022-12-08T15:08:17;5.03;;;4.33;;
12334;SDS011;6233;51.560;9.986;2022-12-08T15:14:31;5.63;;;4.63;;
12334;SDS011;6233;51.560;9.986;2022-12-08T15:20:42;4.30;;;3.90;;
12334;SDS011;6233;51.560;9.986;2022-12-08T15:23:45;3.70;;;3.40;;
12334;SDS011;6233;51.560;9.986;2022-12-08T15:26:52;3.83;;;3.53;;
12334;SDS011;6233;51.560;9.986;2022-12-08T15:29:54;4.40;;;3.83;;
12334;SDS011;6233;51.560;9.986;2022-12-08T15:33:00;6.73;;;5.10;;
12334;SDS011;6233;51.560;9.986;2022-12-08T15:36:01;7.20;;;5.83;;
12334;SDS011;6233;51.560;9.986;2022-12-08T15:39:05;5.47;;;4.80;;
12334;SDS011;6233;51.560;9.986;2022-12-08T15:42:11;5.60;;;5.00;;
12334;SDS011;6233;51.560;9.986;2022-12-08T15:45:13;5.13;;;4.63;;
12334;SDS011;6233;51.560;9.986;2022-12-08T15:48:26;5.47;;;4.97;;
12334;SDS011;6233;51.560;9.986;2022-12-08T15:51:29;5.43;;;4.60;;
12334;SDS011;6233;51.560;9.986;2022-12-08T15:54:36;4.77;;;4.20;;
12334;SDS011;6233;51.560;9.986;2022-12-08T15:57:38;4.87;;;4.40;;
12334;SDS011;6233;51.560;9.986;2022-12-08T16:01:00;4.63;;;3.63;;
12334;SDS011;6233;51.560;9.986;2022-12-08T16:04:02;5.13;;;4.20;;
12334;SDS011;6233;51.560;9.986;2022-12-08T16:07:25;4.40;;;4.00;;
12334;SDS011;6233;51.560;9.986;2022-12-08T16:10:29;4.53;;;4.00;;
12334;SDS011;6233;51.560;9.986;2022-12-08T16:13:50;5.13;;;4.63;;
12334;SDS011;6233;51.560;9.986;2022-12-08T16:17:03;5.20;;;4.50;;
12334;SDS011;6233;51.560;9.986;2022-12-08T16:20:06;5.77;;;4.27;;
12334;SDS011;6233;51.560;9.986;2022-12-08T16:23:12;5.27;;;4.47;;
12334;SDS011;6233;51.560;9.986;2022-12-08T16:26:33;6.67;;;4.80;;
12334;SDS011;6233;51.560;9.986;2022-12-08T16:29:56;5.87;;;5.13;;
12334;SDS011;6233;51.560;9.986;2022-12-08T16:32:59;6.03;;;4.97;;
12334;SDS011;6233;51.560;9.986;2022-12-08T16:36:00;5.97;;;5.33;;
12334;SDS011;6233;51.560;9.986;2022-12-08T16:39:02;6.67;;;5.47;;
12334;SDS011;6233;51.560;9.986;2022-12-08T16:42:11;6.30;;;4.97;;
12334;SDS011;6233;51.560;9.986;2022-12-08T16:45:32;6.20;;;5.13;;
12334;SDS011;6233;51.560;9.986;2022-12-08T16:48:44;7.43;;;5.50;;
12334;SDS011;6233;51.560;9.986;2022-12-08T16:51:46;5.63;;;5.03;;
12334;SDS011;6233;51.560;9.986;2022-12-08T16:54:48;6.80;;;5.47;;
12334;SDS011;6233;51.560;9.986;2022-12-08T16:57:50;8.73;;;6.63;;
12334;SDS011;6233;51.560;9.986;2022-12-08T17:00:52;7.03;;;6.30;;
12334;SDS011;6233;51.560;9.986;2022-12-08T17:03:53;7.93;;;6.70;;
12334;SDS011;6233;51.560;9.986;2022-12-08T17:07:15;7.97;;;6.50;;
12334;SDS011;6233;51.560;9.986;2022-12-08T17:10:18;9.17;;;7.13;;
12334;SDS011;6233;51.560;9.986;2022-12-08T17:13:22;15.43;;;9.67;;
12334;SDS011;6233;51.560;9.986;2022-12-08T17:16:24;10.80;;;7.43;;
12334;SDS011;6233;51.560;9.986;2022-12-08T17:19:27;15.83;;;10.70;;
12334;SDS011;6233;51.560;9.986;2022-12-08T17:22:29;11.50;;;8.57;;
12334;SDS011;6233;51.560;9.986;2022-12-08T17:25:31;12.77;;;9.37;;
12334;SDS011;6233;51.560;9.986;2022-12-08T17:28:33;10.70;;;7.83;;
12334;SDS011;6233;51.560;9.986;2022-12-08T17:31:58;11.10;;;8.23;;
12334;SDS011;6233;51.560;9.986;2022-12-08T17:35:01;8.07;;;6.90;;
12334;SDS011;6233;51.560;9.986;2022-12-08T17:38:04;8.17;;;6.20;;
12334;SDS011;6233;51.560;9.986;2022-12-08T17:41:07;6.37;;;5.77;;
12334;SDS011;6233;51.560;9.986;2022-12-08T17:44:10;6.73;;;5.37;;
12334;SDS011;6233;51.560;9.986;2022-12-08T17:47:13;6.53;;;5.50;;
12334;SDS011;6233;51.560;9.986;2022-12-08T17:50:17;9.67;;;7.97;;
12334;SDS011;6233;51.560;9.986;2022-12-08T17:53:20;10.30;;;8.10;;
12334;SDS011;6233;51.560;9.986;2022-12-08T17:56:22;7.27;;;6.00;;
12334;SDS011;6233;51.560;9.986;2022-12-08T17:59:24;8.40;;;6.77;;
12334;SDS011;6233;51.560;9.986;2022-12-08T18:02:27;9.70;;;7.50;;
12334;SDS011;6233;51.560;9.986;2022-12-08T18:05:33;7.17;;;5.97;;
12334;SDS011;6233;51.560;9.986;2022-12-08T18:08:35;7.93;;;6.23;;
12334;SDS011;6233;51.560;9.986;2022-12-08T18:11:37;7.57;;;6.47;;
12334;SDS011;6233;51.560;9.986;2022-12-08T18:14:39;7.70;;;6.00;;
12334;SDS011;6233;51.560;9.986;2022-12-08T18:17:41;8.27;;;6.87;;
12334;SDS011;6233;51.560;9.986;2022-12-08T18:20:43;8.00;;;7.17;;
12334;SDS011;6233;51.560;9.986;2022-12-08T18:23:46;8.40;;;7.20;;
12334;SDS011;6233;51.560;9.986;2022-12-08T18:26:48;9.33;;;6.83;;
12334;SDS011;6233;51.560;9.986;2022-12-08T18:29:55;7.70;;;6.10;;
12334;SDS011;6233;51.560;9.986;2022-12-08T18:32:57;8.10;;;6.80;;
12334;SDS011;6233;51.560;9.986;2022-12-08T18:35:59;7.87;;;6.27;;
12334;SDS011;6233;51.560;9.986;2022-12-08T18:39:01;9.07;;;6.73;;
12334;SDS011;6233;51.560;9.986;2022-12-08T18:42:11;6.90;;;5.73;;
12334;SDS011;6233;51.560;9.986;2022-12-08T18:45:26;7.37;;;5.73;;
12334;SDS011;6233;51.560;9.986;2022-12-08T18:48:27;7.67;;;6.40;;
12334;SDS011;6233;51.560;9.986;2022-12-08T18:51:29;8.20;;;6.20;;
12334;SDS011;6233;51.560;9.986;2022-12-08T18:54:31;9.47;;;7.90;;
12334;SDS011;6233;51.560;9.986;2022-12-08T18:57:53;8.07;;;6.50;;
12334;SDS011;6233;51.560;9.986;2022-12-08T19:00:55;7.80;;;6.30;;
12334;SDS011;6233;51.560;9.986;2022-12-08T19:03:57;8.70;;;7.07;;
12334;SDS011;6233;51.560;9.986;2022-12-08T19:07:29;8.20;;;7.00;;
12334;SDS011;6233;51.560;9.986;2022-12-08T19:10:31;8.80;;;6.63;;
12334;SDS011;6233;51.560;9.986;2022-12-08T19:13:35;7.93;;;6.17;;
12334;SDS011;6233;51.560;9.986;2022-12-08T19:16:37;8.93;;;6.87;;
12334;SDS011;6233;51.560;9.986;2022-12-08T19:19:38;8.03;;;6.23;;
12334;SDS011;6233;51.560;9.986;2022-12-08T19:22:40;7.93;;;6.33;;
12334;SDS011;6233;51.560;9.986;2022-12-08T19:25:42;9.63;;;6.73;;
12334;SDS011;6233;51.560;9.986;2022-12-08T19:28:44;8.57;;;6.57;;
12334;SDS011;6233;51.560;9.986;2022-12-08T19:31:46;8.93;;;6.53;;
12334;SDS011;6233;51.560;9.986;2022-12-08T19:34:48;8.87;;;7.33;;
12334;SDS011;6233;51.560;9.986;2022-12-08T19:37:53;9.30;;;6.77;;
12334;SDS011;6233;51.560;9.986;2022-12-08T19:40:58;13.00;;;9.27;;
12334;SDS011;6233;51.560;9.986;2022-12-08T19:44:24;11.73;;;7.67;;
12334;SDS011;6233;51.560;9.986;2022-12-08T19:47:34;8.20;;;5.77;;
12334;SDS011;6233;51.560;9.986;2022-12-08T19:50:36;6.47;;;5.27;;
12334;SDS011;6233;51.560;9.986;2022-12-08T19:53:39;5.90;;;4.97;;
12334;SDS011;6233;51.560;9.986;2022-12-08T19:56:47;7.47;;;5.33;;
12334;SDS011;6233;51.560;9.986;2022-12-08T19:59:49;7.87;;;5.30;;
12334;SDS011;6233;51.560;9.986;2022-12-08T20:02:56;8.07;;;6.10;;
12334;SDS011;6233;51.560;9.986;2022-12-08T20:05:59;9.07;;;7.40;;
12334;SDS011;6233;51.560;9.986;2022-12-08T20:09:01;10.70;;;8.27;;
12334;SDS011;6233;51.560;9.986;2022-12-08T20:12:03;10.00;;;7.30;;
12334;SDS011;6233;51.560;9.986;2022-12-08T20:15:05;12.03;;;7.93;;
12334;SDS011;6233;51.560;9.986;2022-12-08T20:18:10;9.67;;;7.00;;
12334;SDS011;6233;51.560;9.986;2022-12-08T20:21:13;10.23;;;7.30;;
12334;SDS011;6233;51.560;9.986;2022-12-08T20:24:15;8.53;;;6.67;;
12334;SDS011;6233;51.560;9.986;2022-12-08T20:27:17;6.53;;;5.70;;